createdAt,value
2018-08-23T00:02:23.711Z,65.70
2018-08-23T00:04:54.732Z,84.47
2018-08-23T00:07:23.456Z,72.80
2018-08-23T00:09:52.840Z,67.37
2018-08-23T00:12:25.476Z,79.23
2018-08-23T00:14:54.245Z,74.73
2018-08-23T00:17:23.346Z,76.90
2018-08-23T00:19:52.522Z,70.73
2018-08-23T00:22:27.560Z,75.43
2018-08-23T00:25:00.610Z,70.30
2018-08-23T00:27:38.786Z,62.83
2018-08-23T00:30:11.396Z,68.63
2018-08-23T00:32:40.524Z,67.50
2018-08-23T00:35:15.009Z,73.17
2018-08-23T00:37:48.395Z,62.33
2018-08-23T00:40:19.090Z,58.27
2018-08-23T00:42:54.309Z,70.17
2018-08-23T00:45:22.561Z,62.17
2018-08-23T00:47:50.836Z,55.27
2018-08-23T00:50:59.076Z,59.90
2018-08-23T00:53:28.582Z,62.30
2018-08-23T00:56:13.087Z,56.83
2018-08-23T00:58:44.566Z,58.37
2018-08-23T01:01:13.598Z,60.43
2018-08-23T01:03:42.227Z,53.90
2018-08-23T01:06:10.498Z,59.50
2018-08-23T01:08:38.734Z,70.33
2018-08-23T01:11:08.138Z,55.50
2018-08-23T01:13:36.424Z,63.73
2018-08-23T01:16:04.683Z,49.40
2018-08-23T01:18:32.931Z,58.33
2018-08-23T01:21:06.302Z,56.37
2018-08-23T01:23:34.826Z,45.37
2018-08-23T01:26:04.154Z,48.83
2018-08-23T01:28:32.685Z,46.90
2018-08-23T01:31:17.219Z,47.53
2018-08-23T01:33:45.852Z,40.90
2018-08-23T01:36:16.970Z,42.23
2018-08-23T01:38:45.265Z,42.93
2018-08-23T01:41:13.524Z,39.53
2018-08-23T01:43:42.333Z,40.03
2018-08-23T01:46:10.610Z,45.33
2018-08-23T01:48:40.010Z,40.30
2018-08-23T01:51:08.402Z,44.60
2018-08-23T01:53:38.787Z,43.13
2018-08-23T01:56:07.718Z,44.00
2018-08-23T01:58:36.006Z,42.53
2018-08-23T02:01:13.652Z,43.63
2018-08-23T02:03:42.234Z,43.10
2018-08-23T02:06:10.535Z,47.53
2018-08-23T02:08:38.827Z,41.50
2018-08-23T02:11:07.338Z,41.47
2018-08-23T02:13:35.637Z,49.83
2018-08-23T02:16:04.357Z,43.43
2018-08-23T02:18:33.458Z,40.53
2018-08-23T02:21:07.898Z,49.00
2018-08-23T02:23:45.592Z,43.37
2018-08-23T02:26:14.199Z,42.70
2018-08-23T02:28:44.866Z,36.77
2018-08-23T02:31:13.106Z,47.83
2018-08-23T02:33:41.398Z,47.67
2018-08-23T02:36:16.121Z,58.57
2018-08-23T02:38:45.568Z,46.10
2018-08-23T02:41:13.829Z,54.13
2018-08-23T02:43:42.677Z,49.07
2018-08-23T02:46:10.971Z,47.70
2018-08-23T02:48:39.222Z,49.33
2018-08-23T02:51:07.495Z,48.27
2018-08-23T02:53:37.375Z,53.20
2018-08-23T02:56:10.287Z,49.57
2018-08-23T02:58:47.953Z,45.80
2018-08-23T03:01:16.262Z,56.57
2018-08-23T03:04:00.025Z,55.50
2018-08-23T03:07:02.727Z,49.10
2018-08-23T03:09:36.255Z,48.50
2018-08-23T03:12:07.722Z,53.00
2018-08-23T03:14:36.153Z,46.67
2018-08-23T03:17:22.292Z,48.27
2018-08-23T03:20:05.101Z,48.83
2018-08-23T03:22:34.195Z,50.37
2018-08-23T03:25:04.222Z,48.77
2018-08-23T03:27:32.713Z,54.53
2018-08-23T03:30:01.919Z,47.80
2018-08-23T03:32:30.614Z,60.07
2018-08-23T03:34:59.279Z,55.30
2018-08-23T03:37:27.570Z,59.47
2018-08-23T03:39:56.335Z,58.80
2018-08-23T03:42:25.022Z,54.80
2018-08-23T03:44:54.422Z,51.57
2018-08-23T03:47:23.026Z,54.97
2018-08-23T03:49:51.451Z,55.43
2018-08-23T03:52:27.948Z,52.63
2018-08-23T03:54:58.411Z,57.83
2018-08-23T03:57:32.136Z,55.83
2018-08-23T04:00:00.395Z,65.70
2018-08-23T04:02:28.618Z,54.50
2018-08-23T04:05:04.496Z,62.67
2018-08-23T04:07:32.770Z,64.63
2018-08-23T04:10:01.043Z,54.90
2018-08-23T04:12:29.362Z,58.63
2018-08-23T04:15:13.046Z,61.20
2018-08-23T04:17:41.267Z,65.73
2018-08-23T04:20:09.574Z,63.27
2018-08-23T04:22:37.890Z,64.40
2018-08-23T04:25:06.381Z,67.23
2018-08-23T04:27:34.979Z,64.67
2018-08-23T04:30:03.306Z,62.97
2018-08-23T04:32:36.949Z,58.73
2018-08-23T04:35:09.733Z,64.07
2018-08-23T04:37:38.143Z,63.73
2018-08-23T04:40:07.308Z,57.10
2018-08-23T04:42:36.120Z,61.27
2018-08-23T04:45:08.762Z,59.97
2018-08-23T04:47:43.906Z,60.47
2018-08-23T04:50:12.507Z,56.40
2018-08-23T04:52:40.847Z,66.70
2018-08-23T04:55:09.160Z,56.00
2018-08-23T04:57:37.494Z,53.53
2018-08-23T05:00:06.215Z,50.30
2018-08-23T05:02:34.803Z,54.63
2018-08-23T05:05:03.056Z,56.23
2018-08-23T05:07:31.291Z,54.17
2018-08-23T05:09:59.539Z,52.23
2018-08-23T05:12:27.933Z,58.50
2018-08-23T05:14:56.162Z,56.53
2018-08-23T05:17:24.641Z,49.70
2018-08-23T05:19:53.022Z,50.20
2018-08-23T05:22:21.303Z,51.10
2018-08-23T05:24:49.539Z,50.30
2018-08-23T05:27:17.803Z,48.27
2018-08-23T05:29:46.038Z,56.20
2018-08-23T05:32:14.326Z,58.63
2018-08-23T05:34:42.581Z,51.83
2018-08-23T05:37:10.811Z,60.73
2018-08-23T05:39:48.659Z,58.60
2018-08-23T05:42:23.774Z,53.10
2018-08-23T05:44:52.019Z,55.10
2018-08-23T05:47:20.274Z,53.20
2018-08-23T05:49:48.530Z,67.57
2018-08-23T05:52:17.467Z,58.77
2018-08-23T05:54:45.779Z,51.13
2018-08-23T05:57:14.342Z,60.47
2018-08-23T05:59:42.682Z,57.77
2018-08-23T06:02:11.223Z,61.50
2018-08-23T06:04:41.637Z,59.93
2018-08-23T06:07:09.967Z,62.00
2018-08-23T06:09:40.723Z,67.07
2018-08-23T06:12:09.222Z,74.30
2018-08-23T06:14:37.448Z,72.83
2018-08-23T06:17:06.255Z,67.40
2018-08-23T06:19:34.526Z,66.30
2018-08-23T06:22:02.753Z,61.73
2018-08-23T06:24:31.490Z,75.47
2018-08-23T06:27:00.364Z,71.37
2018-08-23T06:29:31.223Z,70.23
2018-08-23T06:32:09.903Z,98.40
2018-08-23T06:34:41.648Z,85.47
2018-08-23T06:37:09.907Z,74.37
2018-08-23T06:39:40.193Z,80.80
2018-08-23T06:42:08.571Z,92.40
2018-08-23T06:44:42.779Z,93.60
2018-08-23T06:47:13.589Z,87.23
2018-08-23T06:49:42.942Z,99.73
2018-08-23T06:52:12.923Z,90.97
2018-08-23T06:54:41.695Z,89.00
2018-08-23T06:57:10.411Z,98.97
2018-08-23T06:59:39.018Z,96.73
2018-08-23T07:02:07.376Z,94.07
2018-08-23T07:04:35.638Z,96.47
2018-08-23T07:07:03.939Z,103.07
2018-08-23T07:09:33.065Z,107.77
2018-08-23T07:12:06.607Z,96.43
2018-08-23T07:14:35.251Z,95.37
2018-08-23T07:17:15.130Z,110.23
2018-08-23T07:19:43.612Z,90.40
2018-08-23T07:22:12.251Z,107.80
2018-08-23T07:24:43.914Z,100.70
2018-08-23T07:27:13.302Z,104.27
2018-08-23T07:29:44.692Z,89.63
2018-08-23T07:32:19.202Z,99.13
2018-08-23T07:35:01.941Z,90.53
2018-08-23T07:37:31.110Z,88.93
2018-08-23T07:40:04.902Z,100.53
2018-08-23T07:42:33.912Z,96.80
2018-08-23T07:45:02.680Z,96.03
2018-08-23T07:47:31.586Z,81.93
2018-08-23T07:50:00.996Z,109.63
2018-08-23T07:52:30.583Z,106.13
2018-08-23T07:54:58.902Z,109.00
2018-08-23T07:57:30.866Z,109.40
2018-08-23T08:00:00.455Z,109.27
2018-08-23T08:02:29.234Z,106.60
2018-08-23T08:04:58.262Z,117.80
2018-08-23T08:07:27.434Z,117.70
2018-08-23T08:09:56.430Z,132.60
2018-08-23T08:12:38.456Z,135.67
2018-08-23T08:15:08.606Z,122.43
2018-08-23T08:17:36.756Z,133.77
2018-08-23T08:20:06.264Z,125.57
2018-08-23T08:22:34.546Z,122.30
2018-08-23T08:25:08.971Z,112.60
2018-08-23T08:27:37.805Z,116.43
2018-08-23T08:30:08.362Z,117.33
2018-08-23T08:32:36.621Z,128.53
2018-08-23T08:35:04.923Z,106.77
2018-08-23T08:37:33.168Z,119.00
2018-08-23T08:40:01.453Z,120.40
2018-08-23T08:42:32.188Z,129.80
2018-08-23T08:45:17.014Z,102.13
2018-08-23T08:47:46.265Z,114.30
2018-08-23T08:50:14.636Z,127.70
2018-08-23T08:52:43.002Z,104.00
2018-08-23T08:55:13.643Z,106.87
2018-08-23T08:57:43.328Z,94.07
2018-08-23T09:00:11.711Z,96.07
2018-08-23T09:02:39.986Z,83.33
2018-08-23T09:05:09.131Z,74.63
2018-08-23T09:07:38.446Z,93.23
2018-08-23T09:10:06.846Z,100.20
2018-08-23T09:12:39.306Z,114.13
2018-08-23T09:15:07.662Z,79.97
2018-08-23T09:17:42.271Z,69.90
2018-08-23T09:20:18.628Z,52.90
2018-08-23T09:22:50.527Z,67.30
2018-08-23T09:25:28.647Z,51.90
2018-08-23T09:27:58.169Z,40.37
2018-08-23T09:30:27.886Z,39.30
2018-08-23T09:32:56.420Z,36.77
2018-08-23T09:35:28.905Z,42.83
2018-08-23T09:37:58.890Z,40.57
2018-08-23T09:40:27.887Z,40.43
2018-08-23T09:42:56.653Z,29.87
2018-08-23T09:45:24.919Z,41.50
2018-08-23T09:47:53.486Z,31.43
2018-08-23T09:50:21.937Z,26.47
2018-08-23T09:52:50.695Z,33.53
2018-08-23T09:55:20.124Z,33.27
2018-08-23T09:57:48.552Z,26.40
2018-08-23T10:00:22.230Z,34.13
2018-08-23T10:02:55.856Z,29.50
2018-08-23T10:05:29.749Z,21.40
2018-08-23T10:08:03.402Z,22.17
2018-08-23T10:10:37.250Z,27.50
2018-08-23T10:13:10.947Z,20.80
2018-08-23T10:15:45.190Z,15.20
2018-08-23T10:18:18.882Z,15.33
2018-08-23T10:20:52.827Z,19.83
2018-08-23T10:23:22.718Z,16.10
2018-08-23T10:25:52.175Z,19.53
2018-08-23T10:28:23.777Z,17.10
2018-08-23T10:30:52.439Z,19.50
2018-08-23T10:33:20.915Z,16.27
2018-08-23T10:35:56.539Z,12.80
2018-08-23T10:38:26.703Z,10.13
2018-08-23T10:40:59.273Z,17.60
2018-08-23T10:43:32.969Z,21.77
2018-08-23T10:46:03.882Z,19.53
2018-08-23T10:48:32.278Z,15.60
2018-08-23T10:51:00.585Z,20.50
2018-08-23T10:53:28.900Z,17.87
2018-08-23T10:55:57.312Z,19.17
2018-08-23T10:58:25.704Z,15.90
2018-08-23T11:00:53.952Z,18.00
2018-08-23T11:03:22.230Z,10.17
2018-08-23T11:05:50.603Z,20.23
2018-08-23T11:08:19.802Z,9.43
2018-08-23T11:10:53.442Z,8.70
2018-08-23T11:13:27.022Z,15.80
2018-08-23T11:16:00.834Z,10.80
2018-08-23T11:18:34.526Z,7.07
2018-08-23T11:21:03.734Z,14.33
2018-08-23T11:23:32.301Z,6.70
2018-08-23T11:26:00.575Z,5.73
2018-08-23T11:28:28.865Z,8.30
2018-08-23T11:31:01.631Z,16.13
2018-08-23T11:33:29.912Z,6.23
2018-08-23T11:35:58.319Z,10.17
2018-08-23T11:38:26.635Z,9.37
2018-08-23T11:40:54.890Z,6.53
2018-08-23T11:43:23.294Z,5.50
2018-08-23T11:46:01.750Z,8.37
2018-08-23T11:48:30.326Z,8.70
2018-08-23T11:50:58.620Z,8.47
2018-08-23T11:53:27.037Z,11.40
2018-08-23T11:55:55.249Z,9.20
2018-08-23T11:58:23.572Z,7.20
2018-08-23T12:00:51.814Z,13.00
2018-08-23T12:03:21.035Z,6.83
2018-08-23T12:05:49.600Z,9.43
2018-08-23T12:08:18.078Z,10.20
2018-08-23T12:10:46.352Z,7.00
2018-08-23T12:13:14.729Z,8.83
2018-08-23T12:15:45.557Z,6.43
2018-08-23T12:18:17.661Z,5.70
2018-08-23T12:21:13.924Z,5.77
2018-08-23T12:23:55.644Z,8.33
2018-08-23T12:26:34.451Z,9.50
2018-08-23T12:29:14.365Z,7.07
2018-08-23T12:34:56.189Z,5.40
2018-08-23T12:40:18.236Z,3.97
2018-08-23T12:46:19.169Z,7.10
2018-08-23T12:51:41.062Z,5.40
2018-08-23T12:54:11.084Z,9.13
2018-08-23T12:56:51.044Z,5.50
2018-08-23T12:59:25.027Z,12.17
2018-08-23T13:04:50.131Z,9.17
2018-08-23T13:12:49.931Z,9.57
2018-08-23T13:15:29.356Z,11.03
2018-08-23T13:18:13.103Z,26.83
2018-08-23T13:20:43.671Z,12.20
2018-08-23T13:23:14.794Z,12.63
2018-08-23T13:25:51.696Z,9.87
2018-08-23T13:28:20.435Z,15.10
2018-08-23T13:30:52.831Z,9.27
2018-08-23T13:33:25.788Z,13.43
2018-08-23T13:35:57.039Z,22.47
2018-08-23T13:38:29.347Z,10.37
2018-08-23T13:40:58.429Z,7.43
2018-08-23T13:43:28.597Z,7.67
2018-08-23T13:46:01.226Z,17.67
2018-08-23T13:48:32.866Z,15.97
2018-08-23T13:51:05.350Z,14.50
2018-08-23T13:53:34.164Z,13.90
2018-08-23T13:56:08.915Z,19.03
2018-08-23T13:58:39.643Z,12.40
2018-08-23T14:01:15.239Z,10.43
2018-08-23T14:03:51.029Z,12.27
2018-08-23T14:06:21.213Z,8.67
2018-08-23T14:08:58.100Z,15.67
2018-08-23T14:11:27.404Z,17.10
2018-08-23T14:13:57.640Z,18.30
2018-08-23T14:16:27.304Z,20.20
2018-08-23T14:22:03.208Z,10.90
2018-08-23T14:24:36.185Z,12.73
2018-08-23T14:27:12.600Z,15.07
2018-08-23T14:29:47.630Z,12.10
2018-08-23T14:32:20.981Z,16.83
2018-08-23T14:34:51.793Z,12.30
2018-08-23T14:42:28.614Z,31.43
2018-08-23T14:50:56.869Z,18.60
2018-08-23T15:01:24.838Z,21.33
2018-08-23T15:07:20.627Z,14.67
2018-08-23T15:10:23.634Z,15.50
2018-08-23T15:16:12.204Z,17.80
2018-08-23T15:20:39.988Z,16.90
2018-08-23T16:09:19.731Z,11.33
2018-08-23T16:11:55.075Z,13.37
2018-08-23T16:14:35.889Z,11.20
2018-08-23T16:17:15.159Z,16.93
2018-08-23T17:28:26.202Z,14.37
2018-08-23T18:16:54.170Z,10.10
2018-08-23T18:19:22.511Z,8.10
2018-08-23T18:21:51.188Z,12.50
2018-08-23T18:24:19.659Z,7.80
2018-08-23T18:26:48.013Z,11.90
2018-08-23T18:29:16.327Z,16.60
2018-08-23T18:31:44.571Z,8.60
2018-08-23T18:34:12.914Z,12.80
2018-08-23T18:36:41.176Z,6.43
2018-08-23T18:39:10.920Z,14.63
2018-08-23T18:41:39.346Z,5.00
2018-08-23T18:44:07.820Z,8.90
2018-08-23T18:46:36.389Z,8.10
2018-08-23T18:49:04.800Z,8.10
2018-08-23T18:51:33.054Z,12.80
2018-08-23T18:54:01.541Z,6.90
2018-08-23T18:56:30.325Z,5.47
2018-08-23T18:58:58.803Z,5.47
2018-08-23T19:01:27.070Z,3.97
2018-08-23T19:03:55.430Z,15.93
2018-08-23T19:06:28.977Z,10.93
2018-08-23T19:09:02.317Z,14.50
2018-08-23T19:11:30.652Z,5.13
2018-08-23T19:13:59.024Z,4.50
2018-08-23T19:16:32.658Z,5.37
2018-08-23T19:19:01.012Z,3.50
2018-08-23T19:21:29.267Z,4.43
2018-08-23T19:23:57.547Z,3.83
2018-08-23T19:26:25.926Z,12.40
2018-08-23T19:28:54.241Z,8.50
2018-08-23T19:31:22.594Z,8.40
2018-08-23T19:33:50.894Z,8.50
2018-08-23T19:36:19.462Z,6.10
2018-08-23T19:38:47.746Z,6.10
2018-08-23T19:41:16.076Z,7.67
2018-08-23T19:43:44.323Z,9.37
2018-08-23T19:46:17.890Z,10.60
2018-08-23T19:48:47.766Z,8.53
2018-08-23T19:51:16.035Z,4.50
2018-08-23T19:53:44.288Z,6.70
2018-08-23T19:56:12.531Z,13.80
2018-08-23T19:58:40.916Z,4.50
2018-08-23T20:01:09.211Z,11.43
2018-08-23T20:03:38.557Z,7.43
2018-08-23T20:06:07.193Z,7.60
2018-08-23T20:08:47.502Z,7.93
2018-08-23T20:11:15.778Z,4.70
2018-08-23T20:13:44.083Z,8.87
2018-08-23T20:16:12.409Z,6.20
2018-08-23T20:18:40.736Z,7.13
2018-08-23T20:21:09.014Z,18.03
2018-08-23T20:23:37.297Z,6.80
2018-08-23T20:26:05.880Z,6.10
2018-08-23T20:28:34.234Z,8.53
2018-08-23T20:31:02.845Z,3.50
2018-08-23T20:33:31.121Z,3.30
2018-08-23T20:35:59.367Z,5.67
2018-08-23T20:38:27.650Z,3.70
2018-08-23T20:40:55.926Z,5.57
2018-08-23T20:43:24.183Z,12.00
2018-08-23T20:45:52.459Z,5.70
2018-08-23T20:48:20.881Z,5.67
2018-08-23T20:50:49.175Z,7.93
2018-08-23T20:53:17.512Z,7.13
2018-08-23T20:55:45.811Z,13.00
2018-08-23T20:58:14.137Z,6.40
2018-08-23T21:00:42.382Z,4.20
2018-08-23T21:03:10.630Z,26.27
2018-08-23T21:05:38.898Z,6.13
2018-08-23T21:08:07.202Z,4.47
2018-08-23T21:10:35.495Z,8.13
2018-08-23T21:13:03.826Z,5.00
2018-08-23T21:15:38.784Z,8.63
2018-08-23T21:18:10.000Z,3.63
2018-08-23T21:20:38.724Z,5.60
2018-08-23T21:23:08.179Z,4.20
2018-08-23T21:25:36.598Z,5.00
2018-08-23T21:28:06.337Z,5.57
2018-08-23T21:30:34.560Z,5.30
2018-08-23T21:33:02.790Z,17.60
2018-08-23T21:35:31.087Z,7.73
2018-08-23T21:37:59.415Z,7.07
2018-08-23T21:40:27.965Z,11.43
2018-08-23T21:42:56.281Z,11.60
2018-08-23T21:45:24.943Z,12.17
2018-08-23T21:47:53.202Z,13.50
2018-08-23T21:50:21.521Z,10.57
2018-08-23T21:52:49.860Z,7.57
2018-08-23T21:55:18.797Z,8.77
2018-08-23T21:57:47.048Z,11.93
2018-08-23T22:00:15.692Z,5.87
2018-08-23T22:02:43.971Z,11.00
2018-08-23T22:05:12.353Z,8.47
2018-08-23T22:07:40.601Z,4.53
2018-08-23T22:10:08.910Z,3.40
2018-08-23T22:12:39.114Z,6.57
2018-08-23T22:15:07.387Z,2.97
2018-08-23T22:17:35.880Z,6.30
2018-08-23T22:20:04.358Z,4.83
2018-08-23T22:22:32.589Z,8.30
2018-08-23T22:25:00.858Z,5.63
2018-08-23T22:27:29.110Z,2.37
2018-08-23T22:29:57.414Z,3.53
2018-08-23T22:32:25.720Z,9.63
2018-08-23T22:34:53.999Z,9.47
2018-08-23T22:37:22.237Z,4.40
2018-08-23T22:39:50.496Z,15.60
2018-08-23T22:42:18.737Z,9.47
2018-08-23T22:44:47.019Z,10.07
2018-08-23T22:47:15.319Z,8.73
2018-08-23T22:49:43.632Z,6.03
2018-08-23T22:52:11.822Z,11.77
2018-08-23T22:54:40.133Z,6.63
2018-08-23T22:57:08.385Z,9.13
2018-08-23T22:59:36.623Z,6.03
2018-08-23T23:02:04.959Z,6.47
2018-08-23T23:04:33.218Z,10.13
2018-08-23T23:07:05.714Z,6.00
2018-08-23T23:09:33.983Z,4.93
2018-08-23T23:12:02.288Z,4.10
2018-08-23T23:14:30.509Z,6.90
2018-08-23T23:16:58.808Z,13.13
2018-08-23T23:19:27.295Z,9.80
2018-08-23T23:21:55.575Z,6.53
2018-08-23T23:24:29.164Z,17.37
2018-08-23T23:26:57.427Z,12.83
2018-08-23T23:29:25.846Z,6.20
2018-08-23T23:31:54.166Z,14.40
2018-08-23T23:34:22.472Z,6.10
2018-08-23T23:36:50.844Z,7.53
2018-08-23T23:39:19.208Z,3.00
2018-08-23T23:41:47.503Z,21.50
2018-08-23T23:44:15.887Z,4.30
2018-08-23T23:46:44.175Z,8.63
2018-08-23T23:49:12.604Z,16.27
2018-08-23T23:51:41.347Z,8.30
2018-08-23T23:54:09.767Z,8.13
2018-08-23T23:56:38.038Z,4.70
2018-08-23T23:59:06.661Z,24.93
